sensor_id;sensor_type;location;lat;lon;timestamp;P1;durP1;ratioP1;P2;durP2;ratioP2
69979;SDS011;57318;56.232;43.944;2022-07-12T00:02:11;19.43;;;15.83;;
69979;SDS011;57318;56.232;43.944;2022-07-12T00:04:37;21.63;;;16.92;;
69979;SDS011;57318;56.232;43.944;2022-07-12T00:07:03;19.40;;;16.60;;
69979;SDS011;57318;56.232;43.944;2022-07-12T00:09:29;19.70;;;16.77;;
69979;SDS011;57318;56.232;43.944;2022-07-12T00:11:54;23.10;;;16.50;;
69979;SDS011;57318;56.232;43.944;2022-07-12T00:14:20;20.70;;;17.07;;
69979;SDS011;57318;56.232;43.944;2022-07-12T00:16:46;22.43;;;17.67;;
69979;SDS011;57318;56.232;43.944;2022-07-12T00:19:11;20.27;;;16.53;;
69979;SDS011;57318;56.232;43.944;2022-07-12T00:21:37;22.03;;;18.03;;
69979;SDS011;57318;56.232;43.944;2022-07-12T00:24:03;21.30;;;16.97;;
69979;SDS011;57318;56.232;43.944;2022-07-12T00:26:28;20.20;;;17.17;;
69979;SDS011;57318;56.232;43.944;2022-07-12T00:28:54;24.87;;;17.87;;
69979;SDS011;57318;56.232;43.944;2022-07-12T00:31:20;20.77;;;17.53;;
69979;SDS011;57318;56.232;43.944;2022-07-12T00:33:46;21.73;;;18.20;;
69979;SDS011;57318;56.232;43.944;2022-07-12T00:36:11;21.80;;;17.97;;
69979;SDS011;57318;56.232;43.944;2022-07-12T00:38:37;24.52;;;18.48;;
69979;SDS011;57318;56.232;43.944;2022-07-12T00:41:03;22.17;;;18.67;;
69979;SDS011;57318;56.232;43.944;2022-07-12T00:43:29;25.52;;;19.58;;
69979;SDS011;57318;56.232;43.944;2022-07-12T00:45:54;22.97;;;18.60;;
69979;SDS011;57318;56.232;43.944;2022-07-12T00:48:20;23.47;;;19.47;;
69979;SDS011;57318;56.232;43.944;2022-07-12T00:50:46;26.05;;;19.63;;
69979;SDS011;57318;56.232;43.944;2022-07-12T00:53:13;24.63;;;19.27;;
69979;SDS011;57318;56.232;43.944;2022-07-12T00:55:41;22.90;;;19.00;;
69979;SDS011;57318;56.232;43.944;2022-07-12T00:58:07;25.40;;;19.43;;
69979;SDS011;57318;56.232;43.944;2022-07-12T01:00:33;26.73;;;19.27;;
69979;SDS011;57318;56.232;43.944;2022-07-12T01:03:01;25.07;;;19.83;;
69979;SDS011;57318;56.232;43.944;2022-07-12T01:05:28;25.70;;;20.50;;
69979;SDS011;57318;56.232;43.944;2022-07-12T01:07:54;27.83;;;20.63;;
69979;SDS011;57318;56.232;43.944;2022-07-12T01:10:20;26.23;;;20.40;;
69979;SDS011;57318;56.232;43.944;2022-07-12T01:12:46;32.17;;;21.35;;
69979;SDS011;57318;56.232;43.944;2022-07-12T01:15:12;26.27;;;19.73;;
69979;SDS011;57318;56.232;43.944;2022-07-12T01:17:38;26.15;;;19.90;;
69979;SDS011;57318;56.232;43.944;2022-07-12T01:20:04;25.52;;;20.52;;
69979;SDS011;57318;56.232;43.944;2022-07-12T01:22:34;25.83;;;20.73;;
69979;SDS011;57318;56.232;43.944;2022-07-12T01:25:02;28.83;;;21.27;;
69979;SDS011;57318;56.232;43.944;2022-07-12T01:27:30;28.42;;;21.23;;
69979;SDS011;57318;56.232;43.944;2022-07-12T01:29:56;26.52;;;21.08;;
69979;SDS011;57318;56.232;43.944;2022-07-12T01:32:22;26.43;;;21.00;;
69979;SDS011;57318;56.232;43.944;2022-07-12T01:34:52;26.60;;;21.13;;
69979;SDS011;57318;56.232;43.944;2022-07-12T01:37:19;28.50;;;21.17;;
69979;SDS011;57318;56.232;43.944;2022-07-12T01:39:47;24.58;;;20.75;;
69979;SDS011;57318;56.232;43.944;2022-07-12T01:42:18;30.00;;;21.40;;
69979;SDS011;57318;56.232;43.944;2022-07-12T01:44:45;28.30;;;22.60;;
69979;SDS011;57318;56.232;43.944;2022-07-12T01:47:11;28.02;;;22.00;;
69979;SDS011;57318;56.232;43.944;2022-07-12T01:49:37;28.33;;;21.35;;
69979;SDS011;57318;56.232;43.944;2022-07-12T01:52:03;29.70;;;22.20;;
69979;SDS011;57318;56.232;43.944;2022-07-12T01:54:29;30.50;;;22.02;;
69979;SDS011;57318;56.232;43.944;2022-07-12T01:56:55;32.17;;;23.05;;
69979;SDS011;57318;56.232;43.944;2022-07-12T01:59:21;30.55;;;22.90;;
69979;SDS011;57318;56.232;43.944;2022-07-12T02:01:47;29.30;;;23.88;;
69979;SDS011;57318;56.232;43.944;2022-07-12T02:04:17;29.38;;;23.20;;
69979;SDS011;57318;56.232;43.944;2022-07-12T02:06:44;29.15;;;22.70;;
69979;SDS011;57318;56.232;43.944;2022-07-12T02:09:11;30.95;;;23.40;;
69979;SDS011;57318;56.232;43.944;2022-07-12T02:11:37;30.55;;;23.45;;
69979;SDS011;57318;56.232;43.944;2022-07-12T02:14:02;29.40;;;23.80;;
69979;SDS011;57318;56.232;43.944;2022-07-12T02:16:28;30.97;;;24.40;;
69979;SDS011;57318;56.232;43.944;2022-07-12T02:18:54;31.83;;;22.77;;
69979;SDS011;57318;56.232;43.944;2022-07-12T02:21:19;28.90;;;23.60;;
69979;SDS011;57318;56.232;43.944;2022-07-12T02:23:45;29.87;;;23.40;;
69979;SDS011;57318;56.232;43.944;2022-07-12T02:26:10;33.33;;;23.93;;
69979;SDS011;57318;56.232;43.944;2022-07-12T02:28:36;33.23;;;23.77;;
69979;SDS011;57318;56.232;43.944;2022-07-12T02:31:02;29.33;;;23.00;;
69979;SDS011;57318;56.232;43.944;2022-07-12T02:33:28;31.08;;;23.98;;
69979;SDS011;57318;56.232;43.944;2022-07-12T02:35:53;31.47;;;24.17;;
69979;SDS011;57318;56.232;43.944;2022-07-12T02:38:19;32.90;;;23.23;;
69979;SDS011;57318;56.232;43.944;2022-07-12T02:40:46;30.27;;;23.60;;
69979;SDS011;57318;56.232;43.944;2022-07-12T02:43:18;32.80;;;23.25;;
69979;SDS011;57318;56.232;43.944;2022-07-12T02:45:49;28.88;;;24.17;;
69979;SDS011;57318;56.232;43.944;2022-07-12T02:48:16;30.80;;;23.58;;
69979;SDS011;57318;56.232;43.944;2022-07-12T02:50:42;30.05;;;22.42;;
69979;SDS011;57318;56.232;43.944;2022-07-12T02:53:08;27.80;;;23.20;;
69979;SDS011;57318;56.232;43.944;2022-07-12T02:55:35;28.88;;;23.20;;
69979;SDS011;57318;56.232;43.944;2022-07-12T03:00:28;31.17;;;22.90;;
69979;SDS011;57318;56.232;43.944;2022-07-12T03:05:19;28.20;;;22.10;;
69979;SDS011;57318;56.232;43.944;2022-07-12T03:07:45;27.80;;;22.57;;
69979;SDS011;57318;56.232;43.944;2022-07-12T03:10:11;29.20;;;21.17;;
69979;SDS011;57318;56.232;43.944;2022-07-12T03:12:37;30.10;;;23.05;;
69979;SDS011;57318;56.232;43.944;2022-07-12T03:15:03;32.08;;;22.20;;
69979;SDS011;57318;56.232;43.944;2022-07-12T03:17:30;29.10;;;22.42;;
69979;SDS011;57318;56.232;43.944;2022-07-12T03:19:56;27.38;;;22.13;;
69979;SDS011;57318;56.232;43.944;2022-07-12T03:22:21;27.27;;;22.20;;
69979;SDS011;57318;56.232;43.944;2022-07-12T03:24:47;30.00;;;23.00;;
69979;SDS011;57318;56.232;43.944;2022-07-12T03:27:13;26.33;;;22.10;;
69979;SDS011;57318;56.232;43.944;2022-07-12T03:29:38;28.23;;;22.90;;
69979;SDS011;57318;56.232;43.944;2022-07-12T03:32:05;29.20;;;23.08;;
69979;SDS011;57318;56.232;43.944;2022-07-12T03:34:31;31.70;;;23.33;;
69979;SDS011;57318;56.232;43.944;2022-07-12T03:39:23;28.88;;;23.13;;
69979;SDS011;57318;56.232;43.944;2022-07-12T03:41:49;27.60;;;23.25;;
69979;SDS011;57318;56.232;43.944;2022-07-12T03:44:15;28.40;;;21.57;;
69979;SDS011;57318;56.232;43.944;2022-07-12T03:46:41;32.73;;;24.47;;
69979;SDS011;57318;56.232;43.944;2022-07-12T03:49:06;28.27;;;23.30;;
69979;SDS011;57318;56.232;43.944;2022-07-12T03:51:32;29.20;;;24.20;;
69979;SDS011;57318;56.232;43.944;2022-07-12T03:53:58;27.55;;;23.00;;
69979;SDS011;57318;56.232;43.944;2022-07-12T03:56:24;28.00;;;23.52;;
69979;SDS011;57318;56.232;43.944;2022-07-12T03:59:08;29.13;;;22.95;;
69979;SDS011;57318;56.232;43.944;2022-07-12T04:01:33;28.77;;;23.30;;
69979;SDS011;57318;56.232;43.944;2022-07-12T04:03:59;29.47;;;24.23;;
69979;SDS011;57318;56.232;43.944;2022-07-12T04:06:25;29.03;;;24.40;;
69979;SDS011;57318;56.232;43.944;2022-07-12T04:08:50;32.93;;;23.63;;
69979;SDS011;57318;56.232;43.944;2022-07-12T04:11:16;31.10;;;23.77;;
69979;SDS011;57318;56.232;43.944;2022-07-12T04:13:42;29.07;;;22.37;;
69979;SDS011;57318;56.232;43.944;2022-07-12T04:16:07;32.93;;;23.47;;
69979;SDS011;57318;56.232;43.944;2022-07-12T04:18:33;30.30;;;23.53;;
69979;SDS011;57318;56.232;43.944;2022-07-12T04:20:59;29.23;;;22.80;;
69979;SDS011;57318;56.232;43.944;2022-07-12T04:23:24;30.77;;;24.10;;
69979;SDS011;57318;56.232;43.944;2022-07-12T04:25:51;30.83;;;23.77;;
69979;SDS011;57318;56.232;43.944;2022-07-12T04:28:17;27.35;;;22.83;;
69979;SDS011;57318;56.232;43.944;2022-07-12T04:30:42;31.33;;;23.80;;
69979;SDS011;57318;56.232;43.944;2022-07-12T04:33:09;28.95;;;23.13;;
69979;SDS011;57318;56.232;43.944;2022-07-12T04:35:36;30.13;;;23.88;;
69979;SDS011;57318;56.232;43.944;2022-07-12T04:38:02;30.45;;;24.05;;
69979;SDS011;57318;56.232;43.944;2022-07-12T04:42:54;27.25;;;23.88;;
69979;SDS011;57318;56.232;43.944;2022-07-12T04:45:20;26.23;;;22.48;;
69979;SDS011;57318;56.232;43.944;2022-07-12T04:47:45;29.35;;;23.08;;
69979;SDS011;57318;56.232;43.944;2022-07-12T04:50:11;26.92;;;22.33;;
69979;SDS011;57318;56.232;43.944;2022-07-12T04:52:37;28.58;;;22.85;;
69979;SDS011;57318;56.232;43.944;2022-07-12T04:55:03;29.00;;;22.83;;
69979;SDS011;57318;56.232;43.944;2022-07-12T04:57:30;28.20;;;22.48;;
69979;SDS011;57318;56.232;43.944;2022-07-12T04:59:56;29.80;;;22.73;;
69979;SDS011;57318;56.232;43.944;2022-07-12T05:02:21;27.85;;;22.30;;
69979;SDS011;57318;56.232;43.944;2022-07-12T05:04:47;27.90;;;23.02;;
69979;SDS011;57318;56.232;43.944;2022-07-12T05:07:13;29.08;;;22.45;;
69979;SDS011;57318;56.232;43.944;2022-07-12T05:09:38;26.25;;;21.83;;
69979;SDS011;57318;56.232;43.944;2022-07-12T05:12:04;25.60;;;20.80;;
69979;SDS011;57318;56.232;43.944;2022-07-12T05:16:56;25.40;;;21.02;;
69979;SDS011;57318;56.232;43.944;2022-07-12T05:19:21;24.40;;;20.63;;
69979;SDS011;57318;56.232;43.944;2022-07-12T05:21:47;25.60;;;21.40;;
69979;SDS011;57318;56.232;43.944;2022-07-12T05:24:13;25.92;;;20.73;;
69979;SDS011;57318;56.232;43.944;2022-07-12T05:26:38;26.00;;;21.58;;
69979;SDS011;57318;56.232;43.944;2022-07-12T05:29:04;29.52;;;21.15;;
69979;SDS011;57318;56.232;43.944;2022-07-12T05:31:30;24.58;;;20.77;;
69979;SDS011;57318;56.232;43.944;2022-07-12T05:33:55;25.38;;;20.80;;
69979;SDS011;57318;56.232;43.944;2022-07-12T05:36:21;26.20;;;20.63;;
69979;SDS011;57318;56.232;43.944;2022-07-12T05:38:47;23.58;;;21.08;;
69979;SDS011;57318;56.232;43.944;2022-07-12T05:41:13;24.27;;;19.90;;
69979;SDS011;57318;56.232;43.944;2022-07-12T05:43:38;27.88;;;20.80;;
69979;SDS011;57318;56.232;43.944;2022-07-12T05:46:04;27.02;;;20.38;;
69979;SDS011;57318;56.232;43.944;2022-07-12T05:48:30;23.65;;;19.73;;
69979;SDS011;57318;56.232;43.944;2022-07-12T05:50:56;25.75;;;20.23;;
69979;SDS011;57318;56.232;43.944;2022-07-12T05:53:41;22.60;;;19.60;;
69979;SDS011;57318;56.232;43.944;2022-07-12T05:56:07;24.15;;;18.90;;
69979;SDS011;57318;56.232;43.944;2022-07-12T05:58:33;24.38;;;20.08;;
69979;SDS011;57318;56.232;43.944;2022-07-12T06:00:58;24.48;;;20.50;;
69979;SDS011;57318;56.232;43.944;2022-07-12T06:03:24;22.42;;;19.95;;
69979;SDS011;57318;56.232;43.944;2022-07-12T06:05:50;26.67;;;19.75;;
69979;SDS011;57318;56.232;43.944;2022-07-12T06:08:15;31.02;;;20.77;;
69979;SDS011;57318;56.232;43.944;2022-07-12T06:10:42;23.13;;;19.95;;
69979;SDS011;57318;56.232;43.944;2022-07-12T06:13:07;22.95;;;19.58;;
69979;SDS011;57318;56.232;43.944;2022-07-12T06:15:34;23.30;;;20.40;;
69979;SDS011;57318;56.232;43.944;2022-07-12T06:18:01;23.30;;;19.70;;
69979;SDS011;57318;56.232;43.944;2022-07-12T06:20:27;24.30;;;20.25;;
69979;SDS011;57318;56.232;43.944;2022-07-12T06:22:52;24.75;;;19.63;;
69979;SDS011;57318;56.232;43.944;2022-07-12T06:25:18;21.95;;;19.65;;
69979;SDS011;57318;56.232;43.944;2022-07-12T06:27:44;24.88;;;19.52;;
69979;SDS011;57318;56.232;43.944;2022-07-12T06:32:36;26.45;;;20.08;;
69979;SDS011;57318;56.232;43.944;2022-07-12T06:35:02;24.63;;;19.73;;
69979;SDS011;57318;56.232;43.944;2022-07-12T06:37:28;26.05;;;21.05;;
69979;SDS011;57318;56.232;43.944;2022-07-12T06:39:54;22.67;;;20.20;;
69979;SDS011;57318;56.232;43.944;2022-07-12T06:42:19;22.45;;;19.90;;
69979;SDS011;57318;56.232;43.944;2022-07-12T06:44:45;27.55;;;20.15;;
69979;SDS011;57318;56.232;43.944;2022-07-12T06:47:11;23.23;;;20.70;;
69979;SDS011;57318;56.232;43.944;2022-07-12T06:49:36;24.17;;;20.40;;
69979;SDS011;57318;56.232;43.944;2022-07-12T06:52:02;29.67;;;21.02;;
69979;SDS011;57318;56.232;43.944;2022-07-12T06:54:28;25.40;;;20.25;;
69979;SDS011;57318;56.232;43.944;2022-07-12T06:56:53;24.45;;;20.77;;
69979;SDS011;57318;56.232;43.944;2022-07-12T06:59:19;25.52;;;20.15;;
69979;SDS011;57318;56.232;43.944;2022-07-12T07:01:45;23.58;;;20.55;;
69979;SDS011;57318;56.232;43.944;2022-07-12T07:04:11;21.42;;;19.17;;
69979;SDS011;57318;56.232;43.944;2022-07-12T07:06:37;22.45;;;20.08;;
69979;SDS011;57318;56.232;43.944;2022-07-12T07:09:02;24.05;;;19.95;;
69979;SDS011;57318;56.232;43.944;2022-07-12T07:11:32;22.27;;;19.45;;
69979;SDS011;57318;56.232;43.944;2022-07-12T07:13:59;22.75;;;18.90;;
69979;SDS011;57318;56.232;43.944;2022-07-12T07:18:50;24.83;;;18.92;;
69979;SDS011;57318;56.232;43.944;2022-07-12T07:21:15;23.77;;;19.77;;
69979;SDS011;57318;56.232;43.944;2022-07-12T07:26:07;23.63;;;20.17;;
69979;SDS011;57318;56.232;43.944;2022-07-12T07:28:32;30.23;;;21.35;;
69979;SDS011;57318;56.232;43.944;2022-07-12T07:31:18;22.67;;;20.00;;
69979;SDS011;57318;56.232;43.944;2022-07-12T07:36:09;22.77;;;20.33;;
69979;SDS011;57318;56.232;43.944;2022-07-12T07:41:00;23.88;;;19.20;;
69979;SDS011;57318;56.232;43.944;2022-07-12T07:45:51;23.38;;;19.10;;
69979;SDS011;57318;56.232;43.944;2022-07-12T07:48:17;20.75;;;16.88;;
69979;SDS011;57318;56.232;43.944;2022-07-12T07:53:08;18.25;;;16.27;;
69979;SDS011;57318;56.232;43.944;2022-07-12T07:55:34;18.45;;;16.55;;
69979;SDS011;57318;56.232;43.944;2022-07-12T07:57:59;19.13;;;15.52;;
69979;SDS011;57318;56.232;43.944;2022-07-12T08:02:53;19.17;;;16.98;;
69979;SDS011;57318;56.232;43.944;2022-07-12T08:05:20;22.33;;;17.35;;
69979;SDS011;57318;56.232;43.944;2022-07-12T08:07:45;19.77;;;16.92;;
69979;SDS011;57318;56.232;43.944;2022-07-12T08:10:11;19.15;;;15.85;;
69979;SDS011;57318;56.232;43.944;2022-07-12T08:12:36;20.45;;;17.35;;
69979;SDS011;57318;56.232;43.944;2022-07-12T08:15:02;19.10;;;17.08;;
69979;SDS011;57318;56.232;43.944;2022-07-12T08:17:28;20.17;;;16.75;;
69979;SDS011;57318;56.232;43.944;2022-07-12T08:19:54;20.70;;;16.55;;
69979;SDS011;57318;56.232;43.944;2022-07-12T08:22:19;18.45;;;14.57;;
69979;SDS011;57318;56.232;43.944;2022-07-12T08:24:45;16.02;;;13.35;;
69979;SDS011;57318;56.232;43.944;2022-07-12T08:27:11;18.05;;;14.27;;
69979;SDS011;57318;56.232;43.944;2022-07-12T08:29:36;18.65;;;14.20;;
69979;SDS011;57318;56.232;43.944;2022-07-12T08:32:02;19.13;;;14.15;;
69979;SDS011;57318;56.232;43.944;2022-07-12T08:34:29;17.77;;;14.50;;
69979;SDS011;57318;56.232;43.944;2022-07-12T08:36:54;17.83;;;13.55;;
69979;SDS011;57318;56.232;43.944;2022-07-12T08:39:20;16.85;;;13.65;;
69979;SDS011;57318;56.232;43.944;2022-07-12T08:41:46;18.83;;;14.07;;
69979;SDS011;57318;56.232;43.944;2022-07-12T08:44:11;17.98;;;14.48;;
69979;SDS011;57318;56.232;43.944;2022-07-12T08:46:37;17.13;;;13.63;;
69979;SDS011;57318;56.232;43.944;2022-07-12T08:49:06;18.08;;;14.27;;
69979;SDS011;57318;56.232;43.944;2022-07-12T08:51:35;14.95;;;13.45;;
69979;SDS011;57318;56.232;43.944;2022-07-12T08:54:18;15.00;;;13.05;;
69979;SDS011;57318;56.232;43.944;2022-07-12T08:56:44;17.38;;;13.00;;
69979;SDS011;57318;56.232;43.944;2022-07-12T09:01:43;15.38;;;13.75;;
69979;SDS011;57318;56.232;43.944;2022-07-12T09:04:21;15.18;;;12.30;;
69979;SDS011;57318;56.232;43.944;2022-07-12T09:06:49;14.95;;;12.50;;
69979;SDS011;57318;56.232;43.944;2022-07-12T09:12:21;17.75;;;13.70;;
69979;SDS011;57318;56.232;43.944;2022-07-12T09:14:51;15.82;;;13.32;;
69979;SDS011;57318;56.232;43.944;2022-07-12T09:17:17;16.10;;;13.20;;
69979;SDS011;57318;56.232;43.944;2022-07-12T09:19:56;17.13;;;13.48;;
69979;SDS011;57318;56.232;43.944;2022-07-12T09:22:22;16.60;;;12.80;;
69979;SDS011;57318;56.232;43.944;2022-07-12T09:24:48;15.85;;;13.35;;
69979;SDS011;57318;56.232;43.944;2022-07-12T09:27:14;17.73;;;14.30;;
69979;SDS011;57318;56.232;43.944;2022-07-12T09:29:49;15.65;;;12.82;;
69979;SDS011;57318;56.232;43.944;2022-07-12T09:32:15;18.23;;;14.35;;
69979;SDS011;57318;56.232;43.944;2022-07-12T09:34:59;14.82;;;13.10;;
69979;SDS011;57318;56.232;43.944;2022-07-12T09:37:43;18.58;;;14.32;;
69979;SDS011;57318;56.232;43.944;2022-07-12T09:40:10;15.45;;;13.07;;
69979;SDS011;57318;56.232;43.944;2022-07-12T09:42:36;16.20;;;13.30;;
69979;SDS011;57318;56.232;43.944;2022-07-12T09:45:04;14.20;;;12.80;;
69979;SDS011;57318;56.232;43.944;2022-07-12T09:47:32;17.52;;;14.90;;
69979;SDS011;57318;56.232;43.944;2022-07-12T09:49:58;15.68;;;14.07;;
69979;SDS011;57318;56.232;43.944;2022-07-12T09:54:51;15.73;;;14.15;;
69979;SDS011;57318;56.232;43.944;2022-07-12T09:59:56;15.77;;;13.55;;
69979;SDS011;57318;56.232;43.944;2022-07-12T10:02:22;15.93;;;12.50;;
69979;SDS011;57318;56.232;43.944;2022-07-12T10:04:49;14.55;;;12.88;;
69979;SDS011;57318;56.232;43.944;2022-07-12T10:07:15;13.23;;;11.73;;
69979;SDS011;57318;56.232;43.944;2022-07-12T10:09:42;13.80;;;12.32;;
69979;SDS011;57318;56.232;43.944;2022-07-12T10:12:12;15.73;;;12.38;;
69979;SDS011;57318;56.232;43.944;2022-07-12T10:14:41;13.70;;;12.38;;
69979;SDS011;57318;56.232;43.944;2022-07-12T10:17:09;16.27;;;11.80;;
69979;SDS011;57318;56.232;43.944;2022-07-12T10:19:37;19.77;;;12.27;;
69979;SDS011;57318;56.232;43.944;2022-07-12T10:22:04;16.20;;;11.18;;
69979;SDS011;57318;56.232;43.944;2022-07-12T10:24:45;13.63;;;10.95;;
69979;SDS011;57318;56.232;43.944;2022-07-12T10:29:39;12.73;;;11.43;;
69979;SDS011;57318;56.232;43.944;2022-07-12T10:32:32;14.82;;;12.40;;
69979;SDS011;57318;56.232;43.944;2022-07-12T10:34:58;17.92;;;12.30;;
69979;SDS011;57318;56.232;43.944;2022-07-12T10:37:32;16.52;;;11.88;;
69979;SDS011;57318;56.232;43.944;2022-07-12T10:40:13;14.23;;;12.32;;
69979;SDS011;57318;56.232;43.944;2022-07-12T10:42:40;14.40;;;11.63;;
69979;SDS011;57318;56.232;43.944;2022-07-12T10:45:36;16.80;;;11.88;;
69979;SDS011;57318;56.232;43.944;2022-07-12T10:48:07;14.27;;;11.40;;
69979;SDS011;57318;56.232;43.944;2022-07-12T11:01:22;18.67;;;13.90;;
69979;SDS011;57318;56.232;43.944;2022-07-12T11:03:53;15.77;;;12.93;;
69979;SDS011;57318;56.232;43.944;2022-07-12T11:06:22;17.30;;;12.70;;
69979;SDS011;57318;56.232;43.944;2022-07-12T11:08:53;18.08;;;13.40;;
69979;SDS011;57318;56.232;43.944;2022-07-12T11:11:22;16.38;;;12.70;;
69979;SDS011;57318;56.232;43.944;2022-07-12T11:13:49;16.48;;;13.27;;
69979;SDS011;57318;56.232;43.944;2022-07-12T11:16:15;14.85;;;13.35;;
69979;SDS011;57318;56.232;43.944;2022-07-12T11:18:42;15.20;;;12.88;;
69979;SDS011;57318;56.232;43.944;2022-07-12T11:21:08;16.23;;;11.98;;
69979;SDS011;57318;56.232;43.944;2022-07-12T11:23:34;16.42;;;10.20;;
69979;SDS011;57318;56.232;43.944;2022-07-12T11:26:00;13.50;;;9.20;;
69979;SDS011;57318;56.232;43.944;2022-07-12T11:28:28;8.38;;;6.85;;
69979;SDS011;57318;56.232;43.944;2022-07-12T11:31:00;8.48;;;5.72;;
69979;SDS011;57318;56.232;43.944;2022-07-12T11:33:43;9.73;;;5.35;;
69979;SDS011;57318;56.232;43.944;2022-07-12T11:36:13;11.23;;;5.25;;
69979;SDS011;57318;56.232;43.944;2022-07-12T11:38:43;8.52;;;4.88;;
69979;SDS011;57318;56.232;43.944;2022-07-12T11:41:11;7.32;;;5.03;;
69979;SDS011;57318;56.232;43.944;2022-07-12T11:43:39;8.40;;;4.75;;
69979;SDS011;57318;56.232;43.944;2022-07-12T11:46:06;6.38;;;4.82;;
69979;SDS011;57318;56.232;43.944;2022-07-12T11:48:34;8.18;;;4.40;;
69979;SDS011;57318;56.232;43.944;2022-07-12T11:51:01;6.93;;;4.68;;
69979;SDS011;57318;56.232;43.944;2022-07-12T11:53:31;5.97;;;4.60;;
69979;SDS011;57318;56.232;43.944;2022-07-12T11:55:58;7.35;;;4.60;;
69979;SDS011;57318;56.232;43.944;2022-07-12T11:58:26;9.25;;;5.28;;
69979;SDS011;57318;56.232;43.944;2022-07-12T12:00:53;6.75;;;4.82;;
69979;SDS011;57318;56.232;43.944;2022-07-12T12:03:20;8.38;;;5.20;;
69979;SDS011;57318;56.232;43.944;2022-07-12T12:05:47;6.45;;;4.38;;
69979;SDS011;57318;56.232;43.944;2022-07-12T12:08:15;8.60;;;4.40;;
69979;SDS011;57318;56.232;43.944;2022-07-12T12:13:14;6.07;;;4.10;;
69979;SDS011;57318;56.232;43.944;2022-07-12T12:15:47;8.45;;;4.60;;
69979;SDS011;57318;56.232;43.944;2022-07-12T12:18:16;4.63;;;3.97;;
69979;SDS011;57318;56.232;43.944;2022-07-12T12:20:56;4.82;;;3.97;;
69979;SDS011;57318;56.232;43.944;2022-07-12T12:23:23;7.55;;;3.60;;
69979;SDS011;57318;56.232;43.944;2022-07-12T12:25:49;4.23;;;3.73;;
69979;SDS011;57318;56.232;43.944;2022-07-12T12:28:15;5.50;;;4.50;;
69979;SDS011;57318;56.232;43.944;2022-07-12T12:30:54;5.13;;;3.20;;
69979;SDS011;57318;56.232;43.944;2022-07-12T12:38:38;7.00;;;4.00;;
69979;SDS011;57318;56.232;43.944;2022-07-12T12:41:04;7.78;;;3.78;;
69979;SDS011;57318;56.232;43.944;2022-07-12T12:43:30;5.38;;;3.97;;
69979;SDS011;57318;56.232;43.944;2022-07-12T12:45:57;6.72;;;3.72;;
69979;SDS011;57318;56.232;43.944;2022-07-12T12:48:24;5.80;;;3.92;;
69979;SDS011;57318;56.232;43.944;2022-07-12T12:50:52;6.57;;;3.72;;
69979;SDS011;57318;56.232;43.944;2022-07-12T12:53:31;7.50;;;4.30;;
69979;SDS011;57318;56.232;43.944;2022-07-12T12:55:57;10.52;;;3.95;;
69979;SDS011;57318;56.232;43.944;2022-07-12T12:58:23;6.85;;;3.92;;
69979;SDS011;57318;56.232;43.944;2022-07-12T13:00:51;8.43;;;3.70;;
69979;SDS011;57318;56.232;43.944;2022-07-12T13:03:19;5.47;;;3.78;;
69979;SDS011;57318;56.232;43.944;2022-07-12T13:05:46;7.15;;;3.60;;
69979;SDS011;57318;56.232;43.944;2022-07-12T13:08:13;7.15;;;3.88;;
69979;SDS011;57318;56.232;43.944;2022-07-12T13:10:40;7.38;;;3.63;;
69979;SDS011;57318;56.232;43.944;2022-07-12T13:13:08;7.95;;;3.97;;
69979;SDS011;57318;56.232;43.944;2022-07-12T13:15:35;8.00;;;4.72;;
69979;SDS011;57318;56.232;43.944;2022-07-12T13:18:02;6.15;;;4.28;;
69979;SDS011;57318;56.232;43.944;2022-07-12T13:20:29;8.02;;;4.22;;
69979;SDS011;57318;56.232;43.944;2022-07-12T13:22:56;6.13;;;3.90;;
69979;SDS011;57318;56.232;43.944;2022-07-12T13:27:47;7.60;;;4.93;;
69979;SDS011;57318;56.232;43.944;2022-07-12T13:30:14;6.47;;;3.90;;
69979;SDS011;57318;56.232;43.944;2022-07-12T13:32:41;6.32;;;4.78;;
69979;SDS011;57318;56.232;43.944;2022-07-12T13:35:08;7.07;;;4.15;;
69979;SDS011;57318;56.232;43.944;2022-07-12T13:37:35;6.28;;;4.38;;
69979;SDS011;57318;56.232;43.944;2022-07-12T13:40:02;5.90;;;4.32;;
69979;SDS011;57318;56.232;43.944;2022-07-12T13:42:41;6.82;;;4.75;;
69979;SDS011;57318;56.232;43.944;2022-07-12T13:45:11;7.95;;;4.60;;
69979;SDS011;57318;56.232;43.944;2022-07-12T13:47:39;6.35;;;4.60;;
69979;SDS011;57318;56.232;43.944;2022-07-12T13:50:06;5.40;;;4.35;;
69979;SDS011;57318;56.232;43.944;2022-07-12T13:52:33;6.18;;;4.28;;
69979;SDS011;57318;56.232;43.944;2022-07-12T13:54:59;13.25;;;4.80;;
69979;SDS011;57318;56.232;43.944;2022-07-12T13:59:51;9.02;;;4.38;;
69979;SDS011;57318;56.232;43.944;2022-07-12T14:02:17;6.55;;;4.68;;
69979;SDS011;57318;56.232;43.944;2022-07-12T14:04:43;6.82;;;4.50;;
69979;SDS011;57318;56.232;43.944;2022-07-12T14:07:10;9.20;;;5.85;;
69979;SDS011;57318;56.232;43.944;2022-07-12T14:09:36;8.15;;;5.00;;
69979;SDS011;57318;56.232;43.944;2022-07-12T14:12:02;7.70;;;5.07;;
69979;SDS011;57318;56.232;43.944;2022-07-12T14:14:31;10.10;;;4.80;;
69979;SDS011;57318;56.232;43.944;2022-07-12T14:17:15;7.03;;;4.90;;
69979;SDS011;57318;56.232;43.944;2022-07-12T14:19:40;9.38;;;5.35;;
69979;SDS011;57318;56.232;43.944;2022-07-12T14:22:06;6.05;;;5.40;;
69979;SDS011;57318;56.232;43.944;2022-07-12T14:24:32;6.75;;;5.63;;
69979;SDS011;57318;56.232;43.944;2022-07-12T14:26:57;12.95;;;5.75;;
69979;SDS011;57318;56.232;43.944;2022-07-12T14:29:23;10.27;;;6.28;;
69979;SDS011;57318;56.232;43.944;2022-07-12T14:31:48;7.30;;;5.90;;
69979;SDS011;57318;56.232;43.944;2022-07-12T14:34:15;7.40;;;5.68;;
69979;SDS011;57318;56.232;43.944;2022-07-12T14:36:41;11.32;;;6.07;;
69979;SDS011;57318;56.232;43.944;2022-07-12T14:39:06;6.47;;;5.47;;
69979;SDS011;57318;56.232;43.944;2022-07-12T14:41:32;7.85;;;5.60;;
69979;SDS011;57318;56.232;43.944;2022-07-12T14:43:58;9.10;;;5.20;;
69979;SDS011;57318;56.232;43.944;2022-07-12T14:46:23;7.65;;;5.43;;
69979;SDS011;57318;56.232;43.944;2022-07-12T14:48:49;9.98;;;5.53;;
69979;SDS011;57318;56.232;43.944;2022-07-12T14:51:15;5.30;;;4.80;;
69979;SDS011;57318;56.232;43.944;2022-07-12T14:56:06;7.90;;;5.47;;
69979;SDS011;57318;56.232;43.944;2022-07-12T15:00:58;8.80;;;5.60;;
69979;SDS011;57318;56.232;43.944;2022-07-12T15:05:49;9.23;;;5.32;;
69979;SDS011;57318;56.232;43.944;2022-07-12T15:10:40;7.70;;;5.50;;
69979;SDS011;57318;56.232;43.944;2022-07-12T15:13:06;9.02;;;5.47;;
69979;SDS011;57318;56.232;43.944;2022-07-12T15:15:32;7.07;;;5.50;;
69979;SDS011;57318;56.232;43.944;2022-07-12T15:17:59;8.48;;;6.25;;
69979;SDS011;57318;56.232;43.944;2022-07-12T15:20:24;10.52;;;5.63;;
69979;SDS011;57318;56.232;43.944;2022-07-12T15:22:50;8.38;;;5.78;;
69979;SDS011;57318;56.232;43.944;2022-07-12T15:25:16;9.73;;;5.78;;
69979;SDS011;57318;56.232;43.944;2022-07-12T15:27:42;8.90;;;5.50;;
69979;SDS011;57318;56.232;43.944;2022-07-12T15:30:08;10.05;;;5.65;;
69979;SDS011;57318;56.232;43.944;2022-07-12T15:32:33;6.45;;;5.50;;
69979;SDS011;57318;56.232;43.944;2022-07-12T15:34:59;6.95;;;5.68;;